Time;durP1;ratioP1;P1;durP2;ratioP2;P2;SDS_P1;SDS_P2;PMS_P1;PMS_P2;Temp;Humidity;BMP_temperature;BMP_pressure;BME280_temperature;BME280_humidity;BME280_pressure;Samples;Min_cycle;Max_cycle;Signal;HPM_P1;HPM_P2
2023/03/06 00:02:03;;;;;;;2.47;2.47;;;17.00;59.70;;;;;;4975385;28;44734;-71
2023/03/06 00:04:31;;;;;;;2.27;2.27;;;17.00;59.80;;;;;;4976899;28;43438;-71
2023/03/06 00:07:00;;;;;;;2.23;2.23;;;16.90;59.90;;;;;;4988763;28;43431;-71
2023/03/06 00:09:28;;;;;;;2.17;2.17;;;16.90;59.80;;;;;;4983819;28;44010;-71
2023/03/06 00:11:56;;;;;;;2.27;2.27;;;16.90;59.80;;;;;;4988265;28;43449;-72
2023/03/06 00:14:23;;;;;;;2.23;2.23;;;16.90;59.80;;;;;;4982292;28;43381;-70
2023/03/06 00:16:54;;;;;;;2.10;2.10;;;16.90;59.80;;;;;;4982420;28;43410;-72
2023/03/06 00:19:22;;;;;;;2.37;2.37;;;16.90;59.90;;;;;;4982306;28;43947;-70
2023/03/06 00:21:49;;;;;;;2.00;2.00;;;16.90;60.00;;;;;;4988404;28;43358;-71
2023/03/06 00:24:19;;;;;;;2.47;2.37;;;16.90;59.80;;;;;;4987932;28;43383;-72
2023/03/06 00:26:47;;;;;;;2.10;2.10;;;16.90;59.80;;;;;;4988701;28;43466;-72
2023/03/06 00:29:15;;;;;;;2.13;2.13;;;16.90;59.80;;;;;;4974650;28;43934;-71
2023/03/06 00:31:46;;;;;;;2.00;2.00;;;16.90;59.90;;;;;;4987846;28;43500;-72
2023/03/06 00:34:14;;;;;;;2.33;2.33;;;16.90;59.90;;;;;;4988469;28;43412;-71
2023/03/06 00:36:42;;;;;;;2.13;2.13;;;16.80;59.90;;;;;;4988742;28;43430;-71
2023/03/06 00:39:10;;;;;;;2.30;2.30;;;16.90;60.00;;;;;;4987617;28;43905;-69
2023/03/06 00:41:39;;;;;;;2.27;2.20;;;16.90;59.90;;;;;;4969873;28;45130;-70
2023/03/06 00:44:07;;;;;;;2.37;2.37;;;17.10;59.60;;;;;;4988043;28;43433;-71
2023/03/06 00:46:35;;;;;;;2.20;2.20;;;17.20;59.40;;;;;;4988367;28;43553;-71
2023/03/06 00:49:03;;;;;;;2.23;2.23;;;17.20;59.20;;;;;;4987743;28;43594;-70
2023/03/06 00:51:31;;;;;;;2.60;2.60;;;17.10;59.20;;;;;;4987358;28;43842;-70
2023/03/06 00:53:59;;;;;;;2.40;2.40;;;17.10;59.40;;;;;;4987925;28;43542;-70
2023/03/06 00:56:28;;;;;;;2.30;2.30;;;17.10;59.40;;;;;;4988253;28;43397;-69
2023/03/06 00:58:58;;;;;;;2.20;2.20;;;17.10;59.40;;;;;;4976880;28;45729;-72
2023/03/06 01:01:26;;;;;;;2.30;2.30;;;17.10;59.50;;;;;;4987487;28;43409;-70
2023/03/06 01:03:54;;;;;;;2.23;2.23;;;17.00;59.50;;;;;;4987465;28;43370;-71
2023/03/06 01:06:22;;;;;;;2.33;2.33;;;17.00;59.60;;;;;;4970508;28;43513;-70
2023/03/06 01:08:49;;;;;;;2.30;2.30;;;16.90;59.60;;;;;;4972540;28;45541;-71
2023/03/06 01:11:17;;;;;;;2.50;2.50;;;16.90;59.70;;;;;;4973076;28;45111;-72
2023/03/06 01:13:46;;;;;;;2.20;2.20;;;16.90;59.60;;;;;;4987677;28;43847;-70
2023/03/06 01:16:17;;;;;;;2.40;2.30;;;16.90;59.80;;;;;;4970315;28;43424;-71
2023/03/06 01:18:48;;;;;;;2.50;2.50;;;16.90;59.70;;;;;;4969502;28;45714;-72
2023/03/06 01:21:16;;;;;;;2.27;2.27;;;16.90;59.80;;;;;;4969834;28;44800;-72
2023/03/06 01:23:44;;;;;;;2.30;2.30;;;16.90;59.90;;;;;;4987850;28;43386;-70
2023/03/06 01:26:12;;;;;;;2.60;2.60;;;16.90;59.90;;;;;;4987525;28;43575;-70
2023/03/06 01:28:43;;;;;;;2.60;2.50;;;16.90;59.80;;;;;;4987183;28;43601;-70
2023/03/06 01:31:15;;;;;;;2.40;2.40;;;16.90;59.80;;;;;;4972418;28;44347;-70
2023/03/06 01:33:43;;;;;;;2.23;2.23;;;16.90;59.90;;;;;;4987066;28;43956;-71
2023/03/06 01:36:12;;;;;;;2.43;2.43;;;16.90;59.90;;;;;;4987239;28;43442;-71
2023/03/06 01:38:40;;;;;;;2.60;2.60;;;16.80;59.80;;;;;;4986836;28;43917;-69
2023/03/06 01:41:09;;;;;;;2.53;2.53;;;16.80;59.90;;;;;;4986805;28;43833;-71
2023/03/06 01:43:38;;;;;;;2.53;2.50;;;16.90;60.00;;;;;;4969558;28;43399;-71
2023/03/06 01:46:33;;;;;;;2.40;2.40;;;17.00;59.80;;;;;;4970246;28;43572;-72
2023/03/06 01:49:04;;;;;;;2.53;2.50;;;17.10;59.50;;;;;;4979879;28;45727;-71
2023/03/06 01:51:33;;;;;;;2.20;2.20;;;17.10;59.20;;;;;;4986422;28;44118;-71
2023/03/06 01:54:07;;;;;;;2.20;2.20;;;17.10;59.20;;;;;;4987038;28;43414;-71
2023/03/06 01:56:35;;;;;;;2.40;2.40;;;17.10;59.40;;;;;;4987225;28;43465;-71
2023/03/06 01:59:04;;;;;;;2.30;2.30;;;17.10;59.50;;;;;;4972589;28;43793;-72
2023/03/06 02:01:34;;;;;;;2.07;2.07;;;17.00;59.30;;;;;;4969633;28;45146;-73
2023/03/06 02:04:02;;;;;;;2.40;2.40;;;17.00;59.50;;;;;;4986352;28;43595;-71
2023/03/06 02:06:29;;;;;;;2.20;2.20;;;17.00;59.60;;;;;;4969771;28;43399;-72
2023/03/06 02:09:02;;;;;;;2.30;2.30;;;17.00;59.60;;;;;;4969135;28;44010;-73
2023/03/06 02:11:30;;;;;;;2.50;2.50;;;16.90;59.70;;;;;;4989324;28;43521;-72
2023/03/06 02:13:58;;;;;;;2.50;2.50;;;16.90;59.80;;;;;;4969243;28;43633;-73
2023/03/06 02:16:27;;;;;;;2.20;2.20;;;16.90;59.60;;;;;;4968589;28;43606;-72
2023/03/06 02:18:56;;;;;;;2.70;2.60;;;16.90;59.70;;;;;;4984929;28;43609;-72
2023/03/06 02:21:26;;;;;;;2.70;2.70;;;16.90;59.80;;;;;;4968423;28;44873;-73
2023/03/06 02:24:00;;;;;;;2.40;2.40;;;16.90;59.80;;;;;;4986520;28;43940;-72
2023/03/06 02:26:29;;;;;;;2.47;2.47;;;16.90;59.90;;;;;;4970601;28;43566;-72
2023/03/06 02:28:58;;;;;;;2.40;2.40;;;16.80;59.80;;;;;;4968563;28;45935;-72
2023/03/06 02:31:28;;;;;;;2.47;2.47;;;16.90;59.90;;;;;;4968566;28;43445;-74
2023/03/06 02:34:01;;;;;;;2.67;2.67;;;16.90;59.80;;;;;;4968854;28;43414;-72
2023/03/06 02:36:29;;;;;;;2.50;2.50;;;16.90;59.90;;;;;;4968895;28;44169;-72
2023/03/06 02:38:58;;;;;;;2.60;2.60;;;16.90;59.90;;;;;;4968773;28;45969;-74
2023/03/06 02:41:26;;;;;;;2.20;2.20;;;16.80;59.80;;;;;;4968245;28;45168;-71
2023/03/06 02:43:56;;;;;;;2.60;2.60;;;16.80;59.80;;;;;;4967815;28;43483;-71
2023/03/06 02:46:24;;;;;;;2.50;2.50;;;16.80;59.90;;;;;;4988188;28;43502;-72
2023/03/06 02:48:52;;;;;;;2.20;2.20;;;16.90;59.80;;;;;;4989209;28;43853;-71
2023/03/06 02:51:22;;;;;;;2.90;2.80;;;17.10;59.60;;;;;;4971379;28;45018;-73
2023/03/06 02:53:50;;;;;;;2.50;2.40;;;17.20;59.20;;;;;;4965625;28;43467;-72
2023/03/06 02:56:19;;;;;;;2.40;2.40;;;17.20;59.10;;;;;;4972488;28;43476;-72
2023/03/06 02:58:47;;;;;;;2.23;2.23;;;17.10;59.00;;;;;;4968751;28;45971;-73
2023/03/06 03:01:16;;;;;;;2.50;2.50;;;17.10;59.30;;;;;;4972057;28;45040;-73
2023/03/06 03:03:44;;;;;;;2.60;2.60;;;17.10;59.30;;;;;;4965125;28;44146;-72
2023/03/06 03:06:13;;;;;;;2.27;2.27;;;17.10;59.30;;;;;;4965927;28;44074;-72
2023/03/06 03:08:42;;;;;;;2.50;2.50;;;17.10;59.40;;;;;;4971752;28;46139;-71
2023/03/06 03:11:11;;;;;;;2.50;2.50;;;17.00;59.40;;;;;;4974343;28;45836;-72
2023/03/06 03:13:42;;;;;;;2.40;2.40;;;17.00;59.50;;;;;;4970631;28;43441;-72
2023/03/06 03:16:19;;;;;;;2.40;2.40;;;16.90;59.60;;;;;;4972470;28;43394;-72
2023/03/06 03:18:49;;;;;;;2.23;2.23;;;16.90;59.60;;;;;;4971596;28;43857;-73
2023/03/06 03:21:20;;;;;;;2.40;2.40;;;16.90;59.50;;;;;;4971351;28;43445;-72
2023/03/06 03:23:48;;;;;;;2.20;2.20;;;16.90;59.60;;;;;;4971752;28;43387;-73
2023/03/06 03:26:18;;;;;;;2.43;2.43;;;16.90;59.70;;;;;;4971900;28;43430;-72
2023/03/06 03:28:53;;;;;;;2.30;2.30;;;16.90;59.80;;;;;;4971377;28;43859;-72
2023/03/06 03:31:23;;;;;;;2.37;2.37;;;16.90;59.80;;;;;;4971371;28;44969;-72
2023/03/06 03:33:51;;;;;;;2.50;2.40;;;16.90;59.90;;;;;;4971713;28;43394;-72
2023/03/06 03:36:21;;;;;;;2.40;2.40;;;16.90;59.70;;;;;;4971488;28;43387;-73
2023/03/06 03:38:49;;;;;;;2.40;2.40;;;17.00;59.50;;;;;;4971377;28;46194;-72
2023/03/06 03:41:17;;;;;;;2.20;2.20;;;17.00;59.30;;;;;;4986337;28;44098;-71
2023/03/06 03:43:46;;;;;;;2.40;2.40;;;17.00;59.50;;;;;;4971303;28;43394;-73
2023/03/06 03:46:14;;;;;;;2.43;2.43;;;17.00;59.50;;;;;;4971626;28;43566;-72
2023/03/06 03:48:43;;;;;;;2.30;2.30;;;16.90;59.60;;;;;;4970897;28;44715;-72
2023/03/06 03:51:15;;;;;;;2.20;2.20;;;16.90;59.60;;;;;;4970981;28;43387;-71
2023/03/06 03:53:48;;;;;;;2.23;2.23;;;16.90;59.50;;;;;;4971385;28;43425;-71
2023/03/06 03:56:19;;;;;;;2.30;2.30;;;16.90;59.60;;;;;;4969455;28;43980;-72
2023/03/06 03:58:57;;;;;;;2.40;2.40;;;16.90;59.60;;;;;;4977291;28;45951;-72
2023/03/06 04:01:29;;;;;;;2.80;2.70;;;16.90;59.80;;;;;;4970825;28;43946;-72
2023/03/06 04:04:00;;;;;;;2.50;2.50;;;16.90;59.80;;;;;;4970915;28;43485;-72
2023/03/06 04:06:28;;;;;;;2.50;2.50;;;16.80;59.90;;;;;;4988820;28;43435;-72
2023/03/06 04:08:56;;;;;;;2.30;2.30;;;16.90;59.80;;;;;;4970749;28;44055;-72
2023/03/06 04:11:24;;;;;;;2.30;2.30;;;17.00;59.50;;;;;;4972165;28;43992;-72
2023/03/06 04:13:53;;;;;;;2.53;2.53;;;17.00;59.40;;;;;;4970804;28;43513;-72
2023/03/06 04:16:21;;;;;;;2.43;2.43;;;17.00;59.40;;;;;;4970812;28;43448;-72
2023/03/06 04:18:51;;;;;;;2.60;2.60;;;17.00;59.50;;;;;;4969677;28;45900;-71
2023/03/06 04:21:21;;;;;;;2.50;2.50;;;17.00;59.60;;;;;;4970322;28;45019;-71
2023/03/06 04:23:49;;;;;;;2.33;2.33;;;16.90;59.60;;;;;;4996360;28;43433;-71
2023/03/06 04:26:17;;;;;;;2.30;2.30;;;16.90;59.50;;;;;;4976597;28;43520;-72
2023/03/06 04:28:46;;;;;;;2.20;2.20;;;16.90;59.60;;;;;;4969757;28;45460;-72
2023/03/06 04:31:14;;;;;;;2.30;2.30;;;16.90;59.60;;;;;;4975183;28;44906;-72
2023/03/06 04:33:43;;;;;;;2.37;2.37;;;16.90;59.80;;;;;;4974931;28;43515;-72
2023/03/06 04:36:13;;;;;;;2.40;2.40;;;16.80;59.70;;;;;;4974710;28;43627;-72
2023/03/06 04:38:42;;;;;;;2.30;2.30;;;16.80;59.90;;;;;;4984099;28;45580;-72
2023/03/06 04:41:11;;;;;;;2.40;2.40;;;16.90;59.90;;;;;;4971139;28;43456;-72
2023/03/06 04:43:39;;;;;;;2.40;2.40;;;17.00;59.60;;;;;;4970436;28;44080;-73
2023/03/06 04:46:07;;;;;;;2.30;2.30;;;17.10;59.40;;;;;;4988135;28;43533;-71
2023/03/06 04:48:35;;;;;;;2.17;2.17;;;17.10;59.30;;;;;;4969165;28;45925;-72
2023/03/06 04:51:03;;;;;;;2.50;2.50;;;17.00;59.30;;;;;;4987135;28;43440;-72
2023/03/06 04:53:32;;;;;;;2.27;2.27;;;17.00;59.40;;;;;;4987916;28;43338;-73
2023/03/06 04:56:01;;;;;;;2.20;2.20;;;17.00;59.60;;;;;;4987889;28;43948;-72
2023/03/06 04:58:29;;;;;;;2.50;2.50;;;17.00;59.50;;;;;;4987505;28;43621;-72
2023/03/06 05:00:57;;;;;;;2.50;2.50;;;17.00;59.50;;;;;;4987420;28;43462;-72
2023/03/06 05:03:25;;;;;;;2.70;2.70;;;16.90;59.50;;;;;;4987472;28;44350;-71
2023/03/06 05:05:52;;;;;;;2.27;2.27;;;16.90;59.60;;;;;;4987587;28;43450;-72
2023/03/06 05:08:22;;;;;;;2.33;2.33;;;16.90;59.80;;;;;;4969562;28;46097;-72
2023/03/06 05:10:54;;;;;;;2.30;2.30;;;16.90;59.90;;;;;;4990503;28;43431;-71
2023/03/06 05:13:23;;;;;;;2.33;2.27;;;16.80;59.70;;;;;;4985646;28;43377;-72
2023/03/06 05:15:51;;;;;;;2.00;2.00;;;16.90;59.80;;;;;;4986088;28;43932;-72
2023/03/06 05:18:19;;;;;;;2.23;2.23;;;16.80;59.80;;;;;;4986158;28;43975;-73
2023/03/06 05:20:47;;;;;;;2.10;2.10;;;16.80;59.80;;;;;;4986987;28;43697;-72
2023/03/06 05:23:15;;;;;;;2.13;2.13;;;16.80;59.80;;;;;;4987612;28;43890;-72
2023/03/06 05:25:42;;;;;;;2.20;2.20;;;16.80;59.90;;;;;;4987571;28;43991;-72
2023/03/06 05:28:10;;;;;;;2.10;2.10;;;16.80;60.00;;;;;;4986478;28;43928;-73
2023/03/06 05:30:40;;;;;;;2.30;2.30;;;16.80;59.90;;;;;;4975159;28;45092;-72
2023/03/06 05:33:08;;;;;;;2.47;2.47;;;16.90;59.70;;;;;;4986894;28;43951;-72
2023/03/06 05:35:36;;;;;;;2.20;2.20;;;17.00;59.40;;;;;;4969864;28;43513;-71
2023/03/06 05:38:04;;;;;;;2.27;2.27;;;17.00;59.30;;;;;;4985113;28;43951;-73
2023/03/06 05:40:32;;;;;;;2.40;2.40;;;17.00;59.50;;;;;;4969041;28;44571;-72
2023/03/06 05:43:00;;;;;;;2.30;2.30;;;16.90;59.50;;;;;;4986698;28;43406;-71
2023/03/06 05:45:27;;;;;;;2.47;2.47;;;16.90;59.60;;;;;;4969516;28;43570;-73
2023/03/06 05:47:57;;;;;;;2.00;2.00;;;16.90;59.50;;;;;;4986895;28;43851;-72
2023/03/06 05:50:25;;;;;;;2.20;2.20;;;16.90;59.60;;;;;;4969023;28;44105;-71
2023/03/06 05:52:52;;;;;;;2.00;2.00;;;16.90;59.60;;;;;;4986903;28;43482;-72
2023/03/06 05:55:23;;;;;;;2.20;2.20;;;16.90;59.80;;;;;;4987042;28;43528;-72
2023/03/06 05:57:51;;;;;;;2.20;2.20;;;16.80;59.70;;;;;;4968791;28;45897;-72
2023/03/06 06:00:20;;;;;;;2.30;2.30;;;16.80;59.80;;;;;;4986397;28;44124;-72
2023/03/06 06:02:48;;;;;;;2.10;2.10;;;16.80;59.60;;;;;;4986546;28;43432;-72
2023/03/06 06:05:17;;;;;;;2.20;2.20;;;16.90;59.80;;;;;;4987174;28;43496;-71
2023/03/06 06:07:45;;;;;;;2.07;2.07;;;16.90;59.80;;;;;;4986787;28;43905;-72
2023/03/06 06:10:13;;;;;;;2.20;2.20;;;16.90;59.80;;;;;;4988689;28;43438;-73
2023/03/06 06:12:41;;;;;;;2.10;2.10;;;16.80;59.80;;;;;;4986582;28;43409;-72
2023/03/06 06:15:10;;;;;;;2.20;2.20;;;16.80;59.80;;;;;;4986825;28;44033;-73
2023/03/06 06:17:38;;;;;;;2.40;2.40;;;16.90;59.90;;;;;;4985317;28;43902;-72
2023/03/06 06:20:06;;;;;;;2.57;2.57;;;17.00;59.70;;;;;;4969590;28;45238;-72
2023/03/06 06:22:37;;;;;;;2.20;2.20;;;17.00;59.30;;;;;;4975409;28;43510;-73
2023/03/06 06:25:06;;;;;;;2.50;2.50;;;17.00;59.20;;;;;;4987170;28;43561;-72
2023/03/06 06:27:34;;;;;;;2.10;2.10;;;17.00;59.30;;;;;;4987301;28;43906;-71
2023/03/06 06:30:02;;;;;;;2.30;2.30;;;17.00;59.40;;;;;;4969065;28;45090;-73
2023/03/06 06:32:30;;;;;;;2.10;2.10;;;17.00;59.60;;;;;;4990359;28;43423;-72
2023/03/06 06:34:58;;;;;;;2.17;2.17;;;17.00;59.50;;;;;;4975820;28;43545;-72
2023/03/06 06:37:26;;;;;;;2.10;2.10;;;16.90;59.50;;;;;;4992887;28;43903;-73
2023/03/06 06:39:55;;;;;;;2.57;2.57;;;16.90;59.60;;;;;;4992867;28;43429;-72
2023/03/06 06:42:23;;;;;;;2.33;2.33;;;16.90;59.60;;;;;;4986502;28;43428;-72
2023/03/06 06:45:07;;;;;;;2.10;2.10;;;16.90;59.70;;;;;;4991000;28;43825;-72
2023/03/06 06:47:37;;;;;;;2.33;2.33;;;16.90;59.80;;;;;;4992822;28;43656;-72
2023/03/06 06:50:06;;;;;;;2.33;2.33;;;16.80;59.60;;;;;;4988804;28;43610;-72
2023/03/06 06:52:34;;;;;;;2.30;2.30;;;16.90;59.60;;;;;;4992570;28;44265;-73
2023/03/06 06:55:03;;;;;;;2.10;2.10;;;16.90;59.80;;;;;;4993235;28;43421;-72
2023/03/06 06:57:31;;;;;;;2.50;2.50;;;16.80;59.60;;;;;;4992380;28;43937;-72
2023/03/06 06:59:59;;;;;;;2.07;2.07;;;16.80;59.70;;;;;;4992038;28;44040;-71
2023/03/06 07:02:27;;;;;;;2.40;2.40;;;16.80;59.80;;;;;;4992785;28;43384;-72
2023/03/06 07:04:55;;;;;;;2.13;2.03;;;16.80;59.90;;;;;;4992887;28;43402;-72
2023/03/06 07:07:33;;;;;;;2.47;2.40;;;16.90;59.90;;;;;;4992013;28;43600;-72
2023/03/06 07:10:03;;;;;;;2.00;2.00;;;17.00;59.40;;;;;;4995383;28;44430;-72
2023/03/06 07:12:33;;;;;;;2.33;2.23;;;17.10;59.30;;;;;;4992079;28;43847;-72
2023/03/06 07:15:02;;;;;;;2.30;2.30;;;17.10;59.00;;;;;;4992825;28;43383;-73
2023/03/06 07:17:30;;;;;;;2.10;2.10;;;17.00;59.10;;;;;;4973738;28;45032;-72
2023/03/06 07:19:58;;;;;;;2.27;2.27;;;17.00;59.20;;;;;;4974683;28;44867;-72
2023/03/06 07:22:26;;;;;;;2.40;2.40;;;17.00;59.20;;;;;;4974974;28;43567;-74
2023/03/06 07:24:57;;;;;;;2.20;2.20;;;16.90;59.10;;;;;;4975031;28;43455;-73
2023/03/06 07:27:26;;;;;;;2.10;2.10;;;16.90;59.40;;;;;;4991971;28;43961;-72
2023/03/06 07:29:54;;;;;;;2.10;2.10;;;16.90;59.50;;;;;;4992114;28;43900;-72
2023/03/06 07:32:22;;;;;;;2.47;2.47;;;16.90;59.60;;;;;;4989371;28;43405;-71
2023/03/06 07:34:50;;;;;;;2.33;2.33;;;16.90;59.70;;;;;;4972107;28;43454;-73
2023/03/06 07:37:18;;;;;;;2.40;2.30;;;16.80;59.70;;;;;;4988979;28;43936;-72
2023/03/06 07:39:46;;;;;;;2.13;2.13;;;16.80;59.60;;;;;;4989057;28;43407;-73
2023/03/06 07:42:14;;;;;;;2.30;2.30;;;16.80;59.70;;;;;;4988565;28;44137;-72
2023/03/06 07:44:54;;;;;;;2.53;2.43;;;16.80;59.70;;;;;;4971432;28;43555;-72
2023/03/06 07:47:22;;;;;;;2.27;2.20;;;16.80;59.80;;;;;;4971340;28;45694;-72
2023/03/06 07:49:50;;;;;;;2.57;2.57;;;16.80;59.80;;;;;;4988722;28;43526;-72
2023/03/06 07:52:18;;;;;;;2.50;2.50;;;16.80;60.20;;;;;;4989197;28;43445;-72
2023/03/06 07:54:46;;;;;;;2.53;2.53;;;16.90;59.90;;;;;;4971184;28;43698;-71
2023/03/06 07:57:14;;;;;;;2.27;2.27;;;17.00;59.70;;;;;;4988412;28;43907;-72
2023/03/06 07:59:42;;;;;;;2.63;2.63;;;17.00;59.30;;;;;;4987009;28;43480;-73
2023/03/06 08:02:12;;;;;;;2.50;2.30;;;17.00;59.30;;;;;;4988319;28;43939;-73
2023/03/06 08:04:40;;;;;;;2.37;2.37;;;17.00;59.40;;;;;;4971280;28;43582;-72
2023/03/06 08:07:08;;;;;;;2.60;2.60;;;17.00;59.60;;;;;;4988200;28;43958;-72
2023/03/06 08:09:36;;;;;;;2.40;2.40;;;17.00;59.50;;;;;;4989020;28;43796;-72
2023/03/06 08:12:04;;;;;;;2.17;2.17;;;17.00;59.50;;;;;;4970250;28;43442;-71
2023/03/06 08:14:34;;;;;;;2.67;2.67;;;17.00;59.60;;;;;;4988352;28;43514;-73
2023/03/06 08:17:02;;;;;;;2.10;2.10;;;17.00;59.70;;;;;;4986581;28;44903;-72
2023/03/06 08:19:31;;;;;;;2.63;2.63;;;17.00;59.80;;;;;;4988090;28;43475;-72
2023/03/06 08:21:59;;;;;;;2.40;2.40;;;16.90;59.90;;;;;;4988335;28;43426;-72
2023/03/06 08:24:27;;;;;;;2.40;2.40;;;16.90;60.00;;;;;;4988735;28;43806;-72
2023/03/06 08:26:55;;;;;;;2.60;2.50;;;16.90;59.80;;;;;;4987661;28;43903;-72
2023/03/06 08:29:23;;;;;;;2.53;2.53;;;17.00;59.90;;;;;;4988131;28;44023;-73
2023/03/06 08:31:51;;;;;;;2.60;2.60;;;16.90;59.90;;;;;;4988119;28;43786;-72
2023/03/06 08:34:20;;;;;;;2.70;2.70;;;16.90;60.00;;;;;;4983784;28;43459;-72
2023/03/06 08:36:49;;;;;;;2.60;2.60;;;16.90;60.00;;;;;;4987950;28;43942;-74
2023/03/06 08:39:17;;;;;;;2.40;2.40;;;16.90;60.10;;;;;;4970871;28;44972;-73
2023/03/06 08:41:45;;;;;;;2.70;2.70;;;16.90;60.00;;;;;;4987891;28;43438;-72
2023/03/06 08:44:13;;;;;;;2.57;2.57;;;16.90;60.00;;;;;;4970410;28;43700;-71
2023/03/06 08:46:43;;;;;;;2.77;2.70;;;16.90;60.00;;;;;;4987518;28;43951;-72
2023/03/06 08:49:11;;;;;;;2.77;2.77;;;16.80;60.00;;;;;;4970102;28;45108;-72
2023/03/06 08:51:42;;;;;;;2.70;2.70;;;16.80;60.10;;;;;;4969687;28;43476;-73
2023/03/06 08:54:12;;;;;;;2.93;2.93;;;16.80;60.00;;;;;;4986992;28;43569;-72
2023/03/06 08:56:40;;;;;;;2.70;2.70;;;16.80;60.30;;;;;;4984054;28;43915;-72
2023/03/06 08:59:10;;;;;;;3.03;2.93;;;16.90;60.80;;;;;;4987622;28;43460;-72
2023/03/06 09:01:38;;;;;;;3.40;3.30;;;17.00;59.80;;;;;;4987333;28;43447;-72
2023/03/06 09:04:07;;;;;;;2.90;2.80;;;17.10;59.60;;;;;;4987776;28;43468;-72
2023/03/06 09:06:37;;;;;;;2.80;2.80;;;17.10;59.30;;;;;;4987572;28;43951;-72
2023/03/06 09:09:06;;;;;;;2.50;2.50;;;17.10;59.40;;;;;;4984712;28;43531;-71
2023/03/06 09:11:35;;;;;;;3.20;3.10;;;17.10;59.50;;;;;;4990448;28;43876;-72
2023/03/06 09:14:04;;;;;;;2.90;2.90;;;17.00;59.60;;;;;;4987556;28;43449;-72
2023/03/06 09:16:32;;;;;;;3.40;3.30;;;17.00;59.50;;;;;;4969536;28;45905;-72
2023/03/06 09:19:00;;;;;;;2.97;2.87;;;17.00;59.60;;;;;;4986357;28;44072;-72
2023/03/06 09:21:28;;;;;;;2.97;2.97;;;17.00;59.70;;;;;;4969910;28;44040;-72
2023/03/06 09:23:56;;;;;;;3.20;3.10;;;17.00;59.80;;;;;;4987334;28;43436;-72
2023/03/06 09:26:24;;;;;;;2.97;2.90;;;16.90;59.80;;;;;;4986971;28;43883;-72
2023/03/06 09:29:14;;;;;;;2.70;2.70;;;16.90;60.00;;;;;;4973392;28;44604;-72
2023/03/06 09:31:43;;;;;;;3.10;3.00;;;16.90;59.60;;;;;;4989258;28;44513;-72
2023/03/06 09:34:12;;;;;;;2.70;2.70;;;16.90;59.70;;;;;;4987478;28;44010;-71
2023/03/06 09:36:41;;;;;;;3.20;3.10;;;16.90;59.80;;;;;;4986785;28;44176;-72
2023/03/06 09:39:24;;;;;;;2.90;2.90;;;16.90;59.90;;;;;;4987098;28;43371;-72
2023/03/06 09:41:52;;;;;;;3.17;3.13;;;16.90;59.90;;;;;;4986815;28;43389;-72
2023/03/06 09:44:24;;;;;;;3.27;3.17;;;16.90;60.10;;;;;;4987319;28;43413;-72
2023/03/06 09:47:00;;;;;;;3.27;3.17;;;16.90;59.80;;;;;;4986823;28;43741;-71
2023/03/06 09:49:39;;;;;;;3.20;3.10;;;16.90;60.60;;;;;;4984924;28;43381;-72
2023/03/06 09:52:15;;;;;;;3.20;3.10;;;16.90;59.90;;;;;;4986224;28;43891;-73
2023/03/06 09:54:44;;;;;;;2.90;2.90;;;16.80;59.90;;;;;;4963373;28;44011;-71
2023/03/06 09:57:17;;;;;;;3.07;2.97;;;16.80;59.90;;;;;;4986235;28;43598;-73
2023/03/06 09:59:48;;;;;;;2.93;2.83;;;16.80;60.10;;;;;;4973266;28;43977;-72
2023/03/06 10:02:19;;;;;;;3.33;3.23;;;16.90;60.10;;;;;;4963712;28;43399;-72
2023/03/06 10:04:49;;;;;;;3.10;3.00;;;17.00;59.90;;;;;;4987526;28;44061;-72
2023/03/06 10:07:20;;;;;;;3.47;3.37;;;17.10;59.60;;;;;;4969222;28;45644;-71
2023/03/06 10:09:50;;;;;;;3.40;3.30;;;17.10;59.20;;;;;;4971724;28;44743;-71
2023/03/06 10:12:22;;;;;;;2.90;2.90;;;17.10;58.90;;;;;;4972826;28;43928;-73
2023/03/06 10:15:01;;;;;;;3.07;3.00;;;17.10;59.20;;;;;;4986865;28;43437;-72
2023/03/06 10:17:33;;;;;;;3.17;3.07;;;17.10;59.50;;;;;;4985308;28;45110;-73
2023/03/06 10:20:09;;;;;;;3.20;3.10;;;17.00;59.20;;;;;;4986625;28;43954;-72
2023/03/06 10:22:39;;;;;;;3.17;3.07;;;17.00;59.30;;;;;;4986357;28;43409;-73
2023/03/06 10:25:14;;;;;;;2.80;2.80;;;17.00;59.40;;;;;;4986949;28;43573;-72
2023/03/06 10:27:44;;;;;;;3.27;3.20;;;17.00;59.60;;;;;;4986117;28;43990;-72
2023/03/06 10:30:24;;;;;;;3.43;3.33;;;16.90;59.60;;;;;;4986323;28;43476;-72
2023/03/06 10:32:55;;;;;;;3.33;3.23;;;16.90;59.90;;;;;;4986370;28;43381;-72
2023/03/06 10:35:27;;;;;;;3.23;3.13;;;16.90;59.60;;;;;;4986698;28;43412;-72
2023/03/06 10:38:02;;;;;;;3.33;3.23;;;16.90;59.60;;;;;;4986304;28;43606;-72
2023/03/06 10:40:38;;;;;;;2.97;2.87;;;16.90;59.80;;;;;;4986000;28;43413;-71
2023/03/06 10:43:09;;;;;;;3.50;3.40;;;16.90;59.80;;;;;;4984986;28;44132;-72
2023/03/06 10:45:48;;;;;;;3.30;3.20;;;16.90;59.80;;;;;;4986557;28;43417;-74
2023/03/06 10:48:19;;;;;;;3.57;3.47;;;16.80;59.80;;;;;;4968157;28;45734;-73
2023/03/06 10:50:47;;;;;;;3.37;3.27;;;16.90;60.10;;;;;;4963223;28;44326;-72
2023/03/06 10:53:23;;;;;;;3.50;3.40;;;16.90;59.90;;;;;;4986190;28;43439;-72
2023/03/06 10:55:52;;;;;;;3.40;3.30;;;17.00;59.50;;;;;;4986634;28;43369;-72
2023/03/06 10:58:23;;;;;;;3.57;3.37;;;17.00;59.30;;;;;;4971627;28;45585;-72
2023/03/06 11:01:03;;;;;;;3.20;3.10;;;17.00;59.50;;;;;;4985893;28;43528;-72
2023/03/06 11:03:31;;;;;;;3.03;2.93;;;17.00;59.60;;;;;;4986415;28;43401;-72
2023/03/06 11:06:08;;;;;;;3.43;3.33;;;16.90;59.80;;;;;;4968487;28;43623;-72
2023/03/06 11:08:40;;;;;;;3.20;3.10;;;16.90;59.50;;;;;;4971920;28;46014;-72
2023/03/06 11:11:09;;;;;;;3.40;3.30;;;16.90;59.60;;;;;;4992584;28;43745;-72
2023/03/06 11:13:37;;;;;;;3.33;3.23;;;16.90;59.80;;;;;;4983434;28;44005;-72
2023/03/06 11:16:14;;;;;;;3.53;3.43;;;16.90;59.80;;;;;;4972607;28;43609;-72
2023/03/06 11:18:55;;;;;;;3.13;3.10;;;16.90;60.60;;;;;;4969730;28;45266;-73
2023/03/06 11:21:25;;;;;;;3.30;3.20;;;16.80;60.00;;;;;;4971790;28;45021;-72
2023/03/06 11:23:54;;;;;;;3.27;3.17;;;16.80;59.70;;;;;;4989294;28;43459;-72
2023/03/06 11:26:38;;;;;;;3.50;3.40;;;16.90;59.90;;;;;;4989453;28;43338;-72
2023/03/06 11:29:26;;;;;;;3.20;3.10;;;16.90;59.90;;;;;;4988915;28;43759;-72
2023/03/06 11:31:56;;;;;;;2.83;2.83;;;16.80;59.80;;;;;;4971121;28;44449;-72
2023/03/06 11:34:31;;;;;;;3.30;3.20;;;16.80;59.90;;;;;;4989027;28;43334;-72
2023/03/06 11:37:01;;;;;;;3.37;3.17;;;16.80;60.20;;;;;;4986307;28;43413;-73
2023/03/06 11:39:34;;;;;;;3.33;3.23;;;16.80;60.10;;;;;;4985302;28;43597;-72
2023/03/06 11:42:05;;;;;;;3.30;3.20;;;16.90;59.90;;;;;;4986100;28;43416;-72
2023/03/06 11:44:41;;;;;;;3.43;3.33;;;17.00;59.50;;;;;;4971437;28;43948;-73
2023/03/06 11:47:16;;;;;;;3.20;3.10;;;17.10;59.20;;;;;;4988201;28;43833;-71
2023/03/06 11:49:45;;;;;;;3.27;3.17;;;17.10;59.40;;;;;;4988263;28;43913;-72
2023/03/06 11:52:17;;;;;;;3.70;3.60;;;17.00;59.40;;;;;;4988679;28;43593;-72
2023/03/06 11:54:47;;;;;;;3.33;3.23;;;17.00;59.60;;;;;;4983022;28;43337;-73
2023/03/06 11:57:17;;;;;;;2.93;2.93;;;16.90;59.40;;;;;;4988995;28;44046;-72
2023/03/06 12:00:00;;;;;;;3.10;3.00;;;16.90;59.50;;;;;;4988943;28;46281;-73
2023/03/06 12:03:11;;;;;;;3.20;3.10;;;16.90;59.60;;;;;;4988405;28;43360;-73
2023/03/06 12:05:40;;;;;;;2.90;2.80;;;16.90;59.70;;;;;;4986996;28;43424;-72
2023/03/06 12:08:30;;;;;;;3.00;2.90;;;16.90;59.80;;;;;;4988366;28;43466;-71
2023/03/06 12:11:04;;;;;;;3.20;3.00;;;16.90;60.00;;;;;;4990261;28;43923;-73
2023/03/06 12:14:00;;;;;;;3.00;3.00;;;16.90;59.70;;;;;;4987917;28;43436;-73
2023/03/06 12:16:52;;;;;;;2.90;2.80;;;16.90;59.90;;;;;;4988315;28;43478;-73
2023/03/06 12:19:33;;;;;;;2.87;2.77;;;16.80;59.80;;;;;;4966391;28;43589;-72
2023/03/06 12:22:10;;;;;;;3.20;3.10;;;16.80;59.90;;;;;;4970773;28;46265;-72
2023/03/06 12:24:57;;;;;;;3.37;3.27;;;16.80;59.90;;;;;;4984681;28;43359;-72
2023/03/06 12:27:28;;;;;;;3.33;3.23;;;16.80;60.20;;;;;;4970730;28;43991;-72
2023/03/06 12:30:25;;;;;;;3.17;3.07;;;16.90;60.00;;;;;;4989837;28;43472;-72
2023/03/06 12:32:57;;;;;;;3.10;3.00;;;17.00;59.70;;;;;;4993331;28;43910;-72
2023/03/06 12:35:44;;;;;;;2.80;2.80;;;17.00;59.30;;;;;;4995714;28;43512;-72
2023/03/06 12:38:26;;;;;;;3.30;3.20;;;17.00;59.30;;;;;;4996737;28;43544;-72
2023/03/06 12:41:05;;;;;;;3.20;3.10;;;17.00;59.50;;;;;;4991037;28;43488;-72
2023/03/06 12:44:04;;;;;;;3.40;3.30;;;16.90;59.70;;;;;;4970527;28;46114;-72
2023/03/06 12:46:31;;;;;;;3.20;3.10;;;16.90;59.50;;;;;;4970546;28;43482;-72
2023/03/06 12:49:03;;;;;;;3.53;3.40;;;16.90;59.70;;;;;;4987756;28;44042;-72
2023/03/06 12:51:32;;;;;;;3.13;3.07;;;16.90;59.70;;;;;;4988149;28;43850;-72
2023/03/06 12:54:00;;;;;;;3.60;3.50;;;16.90;59.80;;;;;;4988048;28;43955;-72
2023/03/06 12:56:31;;;;;;;3.30;3.20;;;16.80;59.80;;;;;;4970317;28;44820;-72
2023/03/06 12:59:01;;;;;;;3.17;3.07;;;16.80;60.00;;;;;;4987748;28;43416;-71
2023/03/06 13:01:48;;;;;;;3.40;3.30;;;16.80;59.80;;;;;;4987825;28;43954;-72
2023/03/06 13:04:31;;;;;;;3.30;3.20;;;16.80;60.00;;;;;;4987644;28;44074;-71
2023/03/06 13:07:12;;;;;;;3.80;3.70;;;16.80;60.00;;;;;;4987870;28;43957;-72